Time;durP1;ratioP1;P1;durP2;ratioP2;P2;SDS_P1;SDS_P2;PMS_P1;PMS_P2;Temp;Humidity;BMP_temperature;BMP_pressure;BME280_temperature;BME280_humidity;BME280_pressure;Samples;Min_cycle;Max_cycle;Signal;HPM_P1;HPM_P2
2022/06/08 05:30:36;;;;;;;28.05;23.35;;;18.70;99.90;;;;;;2586550;54;20805;31
2022/06/08 05:33:12;;;;;;;17.45;14.65;;;18.70;99.90;;;;;;2585739;54;20022;31
2022/06/08 05:35:50;;;;;;;22.65;20.30;;;18.80;99.90;;;;;;2605321;46;20093;31
2022/06/08 05:38:26;;;;;;;19.10;17.27;;;18.80;99.90;;;;;;2586789;54;20916;31
2022/06/08 05:41:00;;;;;;;20.20;18.20;;;18.90;99.90;;;;;;2604787;46;20033;31
2022/06/08 05:43:40;;;;;;;24.50;18.85;;;18.90;99.90;;;;;;2605061;46;20337;31
2022/06/08 05:46:18;;;;;;;19.50;17.40;;;19.00;99.90;;;;;;2586645;54;20998;31
2022/06/08 05:48:54;;;;;;;20.10;17.90;;;19.20;99.90;;;;;;2585540;54;20034;31
2022/06/08 05:51:29;;;;;;;16.95;15.25;;;19.50;99.90;;;;;;2586600;54;20298;31
2022/06/08 05:54:15;;;;;;;15.75;12.85;;;19.70;99.90;;;;;;2586432;54;20900;31
2022/06/08 05:56:54;;;;;;;16.35;14.43;;;20.10;99.90;;;;;;2586637;54;20034;31
2022/06/08 05:59:37;;;;;;;13.63;12.32;;;20.40;99.90;;;;;;2604347;46;20027;31
2022/06/08 06:02:14;;;;;;;12.40;10.70;;;20.80;99.90;;;;;;2585620;54;20049;31
2022/06/08 06:04:53;;;;;;;10.50;9.40;;;21.10;99.90;;;;;;2585570;54;20980;31
2022/06/08 06:07:39;;;;;;;13.05;10.82;;;21.50;99.90;;;;;;2586223;54;20573;31
2022/06/08 06:10:39;;;;;;;9.18;7.78;;;21.80;99.90;;;;;;2586240;54;20870;31
2022/06/08 06:13:37;;;;;;;6.75;6.05;;;22.10;99.90;;;;;;2585804;54;20846;31
2022/06/08 06:16:20;;;;;;;7.10;5.38;;;22.50;99.90;;;;;;2586309;54;20027;31
2022/06/08 06:19:03;;;;;;;11.20;7.03;;;22.80;99.90;;;;;;2586269;54;20026;31
2022/06/08 06:21:48;;;;;;;8.30;7.00;;;22.80;99.90;;;;;;2586464;54;20867;31
2022/06/08 06:24:47;;;;;;;8.27;6.43;;;22.60;99.90;;;;;;2586612;54;20872;31
2022/06/08 06:27:47;;;;;;;6.93;5.72;;;22.60;99.90;;;;;;2586448;54;20077;31
2022/06/08 06:30:54;;;;;;;6.40;5.40;;;22.60;99.90;;;;;;2586431;54;20906;31
2022/06/08 06:33:54;;;;;;;7.50;5.45;;;22.90;99.90;;;;;;2586484;54;20129;31
2022/06/08 06:36:43;;;;;;;5.77;4.80;;;23.10;99.90;;;;;;2586582;54;20878;31
2022/06/08 06:39:18;;;;;;;7.50;5.40;;;23.30;99.90;;;;;;2586323;54;20924;31
2022/06/08 06:41:57;;;;;;;13.40;5.68;;;23.60;99.90;;;;;;2586584;54;20026;31
2022/06/08 06:44:36;;;;;;;8.43;4.75;;;23.70;99.90;;;;;;2586298;54;20180;31
2022/06/08 06:47:18;;;;;;;5.40;4.70;;;23.90;99.90;;;;;;2586472;54;20030;31
2022/06/08 06:50:01;;;;;;;6.27;4.60;;;24.00;99.90;;;;;;2586409;54;20053;31
2022/06/08 06:52:40;;;;;;;8.63;4.40;;;24.10;99.90;;;;;;2586279;54;20541;31
2022/06/08 06:55:23;;;;;;;5.80;4.28;;;24.20;99.90;;;;;;2585328;54;20842;31
2022/06/08 06:57:59;;;;;;;7.28;5.07;;;24.30;99.90;;;;;;2586324;54;20026;31
2022/06/08 07:00:42;;;;;;;5.43;4.80;;;24.50;99.90;;;;;;2586208;54;20072;31
2022/06/08 07:03:22;;;;;;;5.70;4.00;;;24.60;99.90;;;;;;2586155;54;20142;31
2022/06/08 07:06:10;;;;;;;4.75;4.10;;;24.80;99.90;;;;;;2604761;46;21232;31
2022/06/08 07:08:49;;;;;;;4.90;4.25;;;25.00;99.90;;;;;;2586036;54;20866;31
2022/06/08 07:11:37;;;;;;;4.57;3.88;;;25.10;99.90;;;;;;2586514;54;20933;31
2022/06/08 07:14:31;;;;;;;4.25;3.85;;;25.30;99.90;;;;;;2586455;54;20862;31
2022/06/08 07:17:27;;;;;;;5.00;3.13;;;25.30;99.90;;;;;;2586344;54;20077;31
2022/06/08 07:20:13;;;;;;;4.40;3.95;;;25.10;99.90;;;;;;2586408;54;20049;31
2022/06/08 07:22:49;;;;;;;8.00;4.33;;;25.00;99.90;;;;;;2585685;54;19935;31
2022/06/08 07:25:26;;;;;;;5.70;4.10;;;25.10;99.90;;;;;;2683169;39;20392;31
2022/06/08 07:28:01;;;;;;;6.17;3.93;;;25.20;99.90;;;;;;2586268;54;20769;31
2022/06/08 07:30:41;;;;;;;7.75;4.00;;;25.30;99.90;;;;;;2586452;54;20772;31
2022/06/08 07:33:15;;;;;;;4.70;3.65;;;25.40;99.90;;;;;;2585237;54;20812;31
2022/06/08 07:35:57;;;;;;;4.00;3.20;;;25.50;99.90;;;;;;2586254;54;20119;31
2022/06/08 07:38:34;;;;;;;6.85;3.60;;;25.60;99.90;;;;;;2585382;54;19949;31
2022/06/08 07:41:11;;;;;;;7.30;3.88;;;25.80;99.90;;;;;;2586310;54;20026;31
2022/06/08 07:43:47;;;;;;;5.03;3.88;;;26.00;99.90;;;;;;2586007;54;20909;31
2022/06/08 07:46:32;;;;;;;4.45;3.05;;;26.20;99.90;;;;;;2586272;54;20503;31
2022/06/08 07:51:53;;;;;;;;;;;26.50;99.90;;;;;;2586499;54;20911;31
2022/06/08 07:54:30;;;;;;;6.22;3.90;;;26.60;99.90;;;;;;2586117;54;20489;31
2022/06/08 07:57:10;;;;;;;4.78;4.03;;;26.70;99.90;;;;;;2586027;54;20715;31
2022/06/08 07:59:47;;;;;;;5.43;3.67;;;26.70;99.90;;;;;;2586120;54;20097;31
2022/06/08 08:02:22;;;;;;;6.38;3.38;;;26.70;99.90;;;;;;2585740;54;20253;31
2022/06/08 08:04:58;;;;;;;5.85;2.70;;;26.50;99.90;;;;;;2586164;54;20109;31
2022/06/08 08:07:34;;;;;;;4.85;2.90;;;26.40;99.90;;;;;;2585918;54;20860;31
2022/06/08 08:10:19;;;;;;;5.50;2.10;;;26.60;99.90;;;;;;2585268;54;20543;31
2022/06/08 08:12:56;;;;;;;4.30;2.10;;;26.70;99.90;;;;;;2586197;54;20747;31
2022/06/08 08:15:34;;;;;;;5.65;2.15;;;26.80;99.90;;;;;;2585965;54;20026;31
2022/06/08 08:18:13;;;;;;;4.25;2.10;;;26.90;99.90;;;;;;2586333;54;20049;31
2022/06/08 08:20:51;;;;;;;3.13;2.00;;;26.80;99.90;;;;;;2604406;47;20780;31
2022/06/08 08:23:25;;;;;;;3.77;1.70;;;26.90;99.90;;;;;;2604578;47;20026;31
2022/06/08 08:26:06;;;;;;;5.93;2.50;;;26.90;99.90;;;;;;2603589;47;20818;31
2022/06/08 08:28:52;;;;;;;3.17;1.90;;;26.90;99.90;;;;;;2585370;54;20026;31
2022/06/08 08:31:27;;;;;;;2.85;1.55;;;26.90;99.90;;;;;;2702260;39;20635;31
2022/06/08 08:34:02;;;;;;;2.40;2.08;;;27.00;99.90;;;;;;2586175;54;20838;31
2022/06/08 08:36:42;;;;;;;2.90;1.90;;;27.00;99.90;;;;;;2699617;39;20420;31
2022/06/08 08:39:20;;;;;;;1.60;1.50;;;27.10;99.70;;;;;;2588635;46;20900;31
2022/06/08 08:44:45;;;;;;;2.67;1.65;;;26.80;98.30;;;;;;2604880;46;20054;31
2022/06/08 08:47:31;;;;;;;2.90;2.20;;;26.80;99.40;;;;;;2586872;54;20050;31
2022/06/08 08:50:20;;;;;;;2.93;2.30;;;26.80;99.90;;;;;;2755528;31;20499;31
2022/06/08 08:52:58;;;;;;;4.13;2.72;;;26.70;98.90;;;;;;2587131;54;20897;31
2022/06/08 08:55:33;;;;;;;5.20;2.20;;;26.60;99.90;;;;;;2586543;54;20093;31
2022/06/08 08:58:19;;;;;;;4.25;2.50;;;26.40;99.20;;;;;;2587143;54;20863;31
2022/06/08 09:00:58;;;;;;;7.00;2.33;;;26.30;99.20;;;;;;2586744;54;20069;31
2022/06/08 09:03:39;;;;;;;4.93;2.10;;;26.20;99.90;;;;;;2586229;54;20036;31
2022/06/08 09:09:08;;;;;;;3.23;2.37;;;26.20;99.90;;;;;;2586641;54;20890;31
2022/06/08 09:11:48;;;;;;;3.97;2.20;;;26.20;99.90;;;;;;2586694;54;20773;31
2022/06/08 09:15:20;;;;;;;3.72;2.47;;;26.20;99.90;;;;;;2586659;54;20053;31
2022/06/08 09:18:00;;;;;;;6.90;2.95;;;26.10;99.90;;;;;;2588562;46;20053;31
2022/06/08 09:20:39;;;;;;;4.85;2.70;;;26.10;99.90;;;;;;2586391;54;20129;31
2022/06/08 09:23:41;;;;;;;3.70;3.30;;;26.10;99.90;;;;;;2586893;54;20740;31
2022/06/08 09:26:32;;;;;;;5.03;3.70;;;26.00;99.90;;;;;;2586744;54;20049;31
2022/06/08 09:29:16;;;;;;;5.65;3.78;;;25.90;99.90;;;;;;2586582;54;20053;31
2022/06/08 09:32:08;;;;;;;9.70;4.40;;;25.90;99.90;;;;;;2586699;54;20863;31
2022/06/08 09:34:50;;;;;;;4.30;3.50;;;25.90;99.90;;;;;;2604791;46;20026;31
2022/06/08 09:40:36;;;;;;;6.40;4.00;;;25.90;99.90;;;;;;2585910;54;20133;31
2022/06/08 09:46:14;;;;;;;3.40;3.03;;;25.70;99.90;;;;;;2586724;54;20889;31
2022/06/08 09:52:16;;;;;;;4.40;3.20;;;25.70;99.90;;;;;;2586349;54;20026;31
2022/06/08 09:55:04;;;;;;;3.10;2.80;;;25.70;99.90;;;;;;2586690;54;20926;31
2022/06/08 09:57:44;;;;;;;5.80;3.10;;;25.60;99.90;;;;;;2586675;54;20034;31
2022/06/08 10:00:31;;;;;;;5.50;3.53;;;25.50;99.90;;;;;;2604857;46;20065;31
2022/06/08 10:03:23;;;;;;;3.08;2.75;;;25.50;99.90;;;;;;2604791;46;20832;31
2022/06/08 10:06:05;;;;;;;6.00;3.45;;;25.50;99.90;;;;;;2586592;54;20026;31
2022/06/08 10:08:52;;;;;;;5.70;3.38;;;25.50;99.90;;;;;;2586753;54;20883;31
2022/06/08 10:11:48;;;;;;;5.40;3.70;;;25.50;99.90;;;;;;2586465;54;20053;31
2022/06/08 10:14:34;;;;;;;6.07;3.53;;;25.50;99.90;;;;;;2586474;54;20027;31
2022/06/08 10:17:17;;;;;;;8.40;3.63;;;25.50;99.90;;;;;;2586643;54;20031;31
2022/06/08 10:20:19;;;;;;;6.05;3.90;;;25.40;99.90;;;;;;2585903;54;20030;31
2022/06/08 10:23:08;;;;;;;3.13;2.80;;;25.50;99.90;;;;;;2586624;54;20026;31
2022/06/08 10:25:53;;;;;;;5.87;2.37;;;25.60;99.90;;;;;;2585479;54;20941;31
2022/06/08 10:28:36;;;;;;;3.53;1.92;;;25.60;99.90;;;;;;2586400;54;20085;31
2022/06/08 10:31:33;;;;;;;2.20;1.97;;;25.60;99.90;;;;;;2586234;54;20027;31
2022/06/08 10:34:25;;;;;;;3.87;2.30;;;25.60;99.90;;;;;;2586288;54;20108;31
2022/06/08 10:37:18;;;;;;;4.28;2.28;;;25.60;99.90;;;;;;2605300;46;20863;31
2022/06/08 10:40:07;;;;;;;2.75;2.30;;;25.80;99.30;;;;;;2586487;54;20849;31
2022/06/08 10:42:51;;;;;;;2.65;1.80;;;25.90;99.30;;;;;;2604996;46;20057;31
2022/06/08 10:45:48;;;;;;;4.72;2.30;;;25.90;98.10;;;;;;2604531;46;20054;31
2022/06/08 10:48:38;;;;;;;3.08;2.40;;;25.90;99.10;;;;;;2605115;46;20737;31
2022/06/08 10:51:42;;;;;;;2.75;2.13;;;26.00;98.10;;;;;;2585397;54;20032;31
2022/06/08 10:57:52;;;;;;;6.60;2.58;;;26.40;99.10;;;;;;2604182;46;20105;31
2022/06/08 11:00:58;;;;;;;4.05;2.80;;;26.40;98.40;;;;;;2586244;54;20878;31
2022/06/08 11:04:00;;;;;;;4.88;3.22;;;26.40;98.50;;;;;;2604099;46;21012;31
2022/06/08 11:06:44;;;;;;;4.87;2.60;;;26.40;98.40;;;;;;2604477;46;20029;31
2022/06/08 11:09:23;;;;;;;4.07;2.45;;;26.60;98.50;;;;;;2585294;54;20976;31
2022/06/08 11:12:04;;;;;;;3.22;2.40;;;26.60;97.80;;;;;;2586493;54;20875;31
2022/06/08 11:14:57;;;;;;;3.22;1.90;;;26.50;96.90;;;;;;2586430;54;20031;31
2022/06/08 11:17:31;;;;;;;2.30;1.95;;;26.40;96.40;;;;;;2586206;54;20026;31
2022/06/08 11:20:15;;;;;;;2.22;1.88;;;26.60;96.50;;;;;;2586436;54;20730;31
2022/06/08 11:22:54;;;;;;;2.30;1.90;;;26.60;96.40;;;;;;2604876;46;20032;31
2022/06/08 11:25:37;;;;;;;2.40;1.95;;;26.70;96.00;;;;;;2586216;54;20100;31
2022/06/08 11:28:37;;;;;;;3.10;1.30;;;26.60;95.20;;;;;;2586113;54;20892;31
2022/06/08 11:34:44;;;;;;;3.88;1.38;;;26.60;93.50;;;;;;2586281;54;20033;31
2022/06/08 11:37:49;;;;;;;4.00;1.90;;;26.70;92.80;;;;;;2604868;46;20753;31
2022/06/08 11:40:28;;;;;;;2.75;1.70;;;26.50;94.10;;;;;;2585744;54;20879;31
2022/06/08 11:43:03;;;;;;;5.70;2.00;;;26.50;94.90;;;;;;2604247;46;20904;31
2022/06/08 11:45:46;;;;;;;1.80;1.60;;;26.50;95.40;;;;;;2586155;54;20033;31
2022/06/08 11:48:24;;;;;;;3.03;1.63;;;26.30;95.10;;;;;;2586319;54;20254;31
2022/06/08 11:51:03;;;;;;;3.70;1.58;;;26.30;93.90;;;;;;2604791;46;20869;31
2022/06/08 11:53:50;;;;;;;2.80;1.40;;;26.30;94.40;;;;;;2604686;46;20026;31
2022/06/08 11:56:29;;;;;;;4.65;1.70;;;26.30;95.20;;;;;;2586158;54;20971;31
2022/06/08 11:59:02;;;;;;;2.75;1.60;;;26.30;94.30;;;;;;2585896;54;20949;31
2022/06/08 12:01:46;;;;;;;4.20;1.60;;;26.30;93.60;;;;;;2586348;54;20106;31
2022/06/08 12:04:30;;;;;;;2.05;1.13;;;26.30;94.80;;;;;;2586161;54;20890;31
2022/06/08 12:07:04;;;;;;;2.20;1.30;;;26.40;93.70;;;;;;2585133;54;20030;31
2022/06/08 12:09:39;;;;;;;1.40;0.90;;;26.50;91.70;;;;;;2586111;54;20034;31
2022/06/08 12:12:21;;;;;;;2.22;0.70;;;26.50;90.90;;;;;;2587120;54;20267;31
2022/06/08 12:14:55;;;;;;;1.77;0.80;;;26.50;90.10;;;;;;2586961;54;20097;31
2022/06/08 12:17:46;;;;;;;2.95;0.80;;;26.50;90.60;;;;;;2605163;46;20053;31
2022/06/08 12:20:22;;;;;;;2.03;1.00;;;26.60;90.20;;;;;;2605257;46;20033;31
2022/06/08 12:23:08;;;;;;;1.70;0.80;;;26.60;89.80;;;;;;2605418;46;21241;31
2022/06/08 12:25:56;;;;;;;3.07;0.87;;;26.60;91.90;;;;;;2605039;46;20026;31
2022/06/08 12:28:28;;;;;;;2.30;0.80;;;26.60;91.10;;;;;;2586779;54;20112;31
2022/06/08 12:31:10;;;;;;;1.88;1.02;;;26.60;90.50;;;;;;2585916;54;21163;31
2022/06/08 12:34:11;;;;;;;4.78;1.23;;;26.70;88.90;;;;;;2586768;54;20579;31
2022/06/08 12:37:03;;;;;;;;;;;;;;;;;;;;;
2022/06/08 12:39:41;;;;;;;2.30;0.90;;;26.70;88.80;;;;;;2586995;54;20736;31
2022/06/08 12:42:26;;;;;;;4.60;0.80;;;26.70;88.50;;;;;;2596087;46;20871;31
2022/06/08 12:45:08;;;;;;;2.70;0.80;;;26.70;86.50;;;;;;2586687;54;20084;31
2022/06/08 12:47:50;;;;;;;2.07;0.77;;;26.60;85.80;;;;;;2586573;54;20057;31
2022/06/08 12:50:25;;;;;;;2.80;0.60;;;26.60;85.20;;;;;;2586836;54;20234;31
2022/06/08 12:53:04;;;;;;;2.05;0.73;;;26.60;87.00;;;;;;2586929;54;20870;31
2022/06/08 12:55:42;;;;;;;2.75;0.80;;;26.60;84.20;;;;;;2585922;54;20037;31
2022/06/08 12:58:17;;;;;;;2.73;0.40;;;26.60;82.60;;;;;;2586925;54;21007;31
2022/06/08 13:00:56;;;;;;;1.80;0.60;;;26.70;82.80;;;;;;2605391;46;20031;31
2022/06/08 13:03:30;;;;;;;3.90;0.80;;;26.80;83.00;;;;;;2586981;54;20945;31
2022/06/08 13:06:02;;;;;;;2.10;0.50;;;26.80;83.10;;;;;;2586655;54;21566;31
2022/06/08 13:08:36;;;;;;;2.33;0.60;;;26.80;85.50;;;;;;2586668;54;20026;31
2022/06/08 13:11:16;;;;;;;0.95;0.55;;;26.80;84.30;;;;;;2586923;54;20770;31
2022/06/08 13:13:55;;;;;;;1.80;1.15;;;26.80;83.10;;;;;;2586809;54;20842;31
2022/06/08 13:16:30;;;;;;;2.55;0.90;;;26.70;83.60;;;;;;2586826;54;20026;31
2022/06/08 13:19:03;;;;;;;2.07;1.00;;;26.70;85.50;;;;;;2586881;54;20034;31
2022/06/08 13:21:36;;;;;;;2.05;1.08;;;26.70;88.40;;;;;;2586751;54;21173;31
2022/06/08 13:24:10;;;;;;;1.67;0.80;;;26.70;86.40;;;;;;2605191;46;20875;31
2022/06/08 13:26:48;;;;;;;2.50;1.20;;;26.70;87.30;;;;;;2586616;54;21621;31
2022/06/08 13:29:22;;;;;;;6.30;2.50;;;26.70;89.30;;;;;;2586603;54;20023;31
2022/06/08 13:32:01;;;;;;;3.47;2.30;;;26.50;92.50;;;;;;2586670;54;20238;31
2022/06/08 13:34:47;;;;;;;5.50;3.00;;;26.30;93.50;;;;;;2586628;54;21033;31
2022/06/08 13:37:36;;;;;;;4.63;2.65;;;26.20;94.20;;;;;;2586591;54;20854;31
2022/06/08 13:40:19;;;;;;;3.15;2.42;;;25.90;94.20;;;;;;2592926;46;20038;31
2022/06/08 13:42:58;;;;;;;3.60;2.80;;;25.80;94.90;;;;;;2585895;54;20023;31
2022/06/08 13:45:41;;;;;;;3.20;2.60;;;25.70;95.10;;;;;;2585805;54;21263;31
2022/06/08 13:51:12;;;;;;;5.00;2.50;;;25.70;95.40;;;;;;2591609;46;20022;31
2022/06/08 13:53:46;;;;;;;4.68;2.75;;;25.60;95.90;;;;;;2586786;54;20978;31
2022/06/08 13:56:22;;;;;;;6.20;2.50;;;25.50;96.10;;;;;;2586157;54;20030;31
2022/06/08 13:59:18;;;;;;;3.40;2.70;;;25.60;97.40;;;;;;2586835;54;20873;31
2022/06/08 14:01:52;;;;;;;4.53;2.70;;;25.60;96.10;;;;;;2586295;54;20049;31
2022/06/08 14:04:37;;;;;;;3.92;2.50;;;25.60;96.20;;;;;;2586253;54;20151;31
2022/06/08 14:13:15;;;;;;;3.38;2.25;;;25.50;96.30;;;;;;2586536;54;20111;31
2022/06/08 14:16:11;;;;;;;2.20;2.00;;;25.50;96.90;;;;;;2586600;54;20867;31
2022/06/08 14:18:46;;;;;;;7.63;2.15;;;25.60;96.60;;;;;;2604590;46;20787;31
2022/06/08 14:21:24;;;;;;;2.80;2.00;;;25.60;96.40;;;;;;2585853;54;20822;31
2022/06/08 14:24:04;;;;;;;2.60;2.30;;;25.60;96.10;;;;;;2585697;54;20890;31
2022/06/08 14:26:39;;;;;;;3.88;2.30;;;25.60;95.80;;;;;;2586205;54;20815;31
2022/06/08 14:29:23;;;;;;;3.20;2.40;;;25.60;95.70;;;;;;2586603;54;20048;31
2022/06/08 14:40:55;;;;;;;2.95;2.08;;;25.50;96.80;;;;;;2586209;54;20102;31
2022/06/08 14:43:30;;;;;;;3.50;2.20;;;25.50;96.70;;;;;;2586553;54;20031;31
2022/06/08 14:46:18;;;;;;;4.15;2.50;;;25.50;97.20;;;;;;2586243;54;20045;31
2022/06/08 14:48:56;;;;;;;5.57;2.40;;;25.50;96.20;;;;;;2585475;54;20909;31
2022/06/08 14:51:34;;;;;;;2.75;1.67;;;25.40;96.80;;;;;;2586668;54;20786;31
2022/06/08 14:54:14;;;;;;;4.47;2.05;;;25.40;95.60;;;;;;2604745;46;20022;31
2022/06/08 14:56:53;;;;;;;3.50;2.08;;;25.40;96.60;;;;;;2586564;54;20829;31
2022/06/08 14:59:35;;;;;;;4.80;2.10;;;25.30;96.10;;;;;;2586304;54;20036;31
2022/06/08 15:02:17;;;;;;;;;;;25.30;95.90;;;;;;2586809;54;20022;31
2022/06/08 15:04:58;;;;;;;4.17;2.27;;;25.20;95.60;;;;;;2595478;46;19942;31
2022/06/08 15:07:36;;;;;;;3.25;2.15;;;25.20;96.50;;;;;;2585201;54;21687;31
2022/06/08 15:10:18;;;;;;;3.20;1.92;;;25.20;96.50;;;;;;2604917;46;20744;31
2022/06/08 15:13:01;;;;;;;4.03;1.92;;;25.30;96.40;;;;;;2586260;54;20744;31
2022/06/08 15:15:40;;;;;;;4.00;2.40;;;25.20;96.40;;;;;;2586301;54;20034;31
2022/06/08 15:18:27;;;;;;;4.07;1.83;;;25.20;96.70;;;;;;2604961;46;20862;31
2022/06/08 15:21:11;;;;;;;4.85;2.10;;;25.20;96.40;;;;;;2604669;46;20055;31
2022/06/08 15:23:59;;;;;;;3.17;2.03;;;25.30;97.10;;;;;;2679316;39;20028;31
2022/06/08 15:30:15;;;;;;;3.35;2.10;;;25.40;97.30;;;;;;2600971;46;20037;31
2022/06/08 15:32:51;;;;;;;6.30;2.08;;;25.50;97.40;;;;;;2586360;54;20766;31
2022/06/08 15:35:27;;;;;;;4.28;2.15;;;25.50;97.30;;;;;;2586314;54;20856;31
2022/06/08 15:38:06;;;;;;;;;;;25.60;96.60;;;;;;2586262;54;20897;31
2022/06/08 15:40:45;;;;;;;2.75;2.30;;;25.60;96.90;;;;;;2604781;46;19934;31
2022/06/08 15:43:20;;;;;;;2.53;2.10;;;25.50;96.70;;;;;;2586299;54;20780;31
2022/06/08 15:45:54;;;;;;;4.15;2.17;;;25.40;96.90;;;;;;2604295;47;20033;31
2022/06/08 15:48:33;;;;;;;2.35;1.73;;;25.50;96.90;;;;;;2604203;46;20657;31
2022/06/08 15:51:12;;;;;;;4.38;1.92;;;25.40;97.50;;;;;;2683776;39;20513;31
2022/06/08 15:53:53;;;;;;;3.60;2.40;;;25.30;97.20;;;;;;2586355;54;20038;31
2022/06/08 15:56:32;;;;;;;3.40;2.13;;;25.20;97.10;;;;;;2586487;54;20873;31
2022/06/08 15:59:17;;;;;;;3.80;1.80;;;25.10;97.20;;;;;;2586127;54;20093;31
2022/06/08 16:01:53;;;;;;;2.20;1.90;;;25.00;97.60;;;;;;2586234;54;20898;31
2022/06/08 16:04:27;;;;;;;2.50;1.70;;;25.00;97.80;;;;;;2586156;54;20033;31
2022/06/08 16:07:04;;;;;;;2.60;2.13;;;24.90;97.70;;;;;;2586223;54;20034;31
2022/06/08 16:09:42;;;;;;;2.10;1.70;;;24.80;97.50;;;;;;2585231;54;21294;31
2022/06/08 16:12:18;;;;;;;2.30;2.00;;;24.70;97.90;;;;;;2585263;54;20128;31
2022/06/08 16:14:58;;;;;;;5.70;2.20;;;24.70;97.90;;;;;;2586047;54;20760;31
2022/06/08 16:17:33;;;;;;;3.10;2.20;;;24.70;97.80;;;;;;2604770;47;20026;31
2022/06/08 16:20:10;;;;;;;;;;;24.60;97.90;;;;;;2585376;54;20027;31
2022/06/08 16:22:44;;;;;;;2.30;2.10;;;24.60;98.50;;;;;;2586104;54;20766;31
2022/06/08 16:25:27;;;;;;;2.88;2.10;;;24.50;99.00;;;;;;2586026;54;20034;31
2022/06/08 16:28:02;;;;;;;3.20;2.10;;;24.40;99.40;;;;;;2585866;54;20999;31
2022/06/08 16:30:42;;;;;;;4.30;1.90;;;24.40;99.70;;;;;;2585858;54;20073;31
2022/06/08 16:33:14;;;;;;;4.93;2.15;;;24.40;99.90;;;;;;2586021;54;20928;31
2022/06/08 16:35:56;;;;;;;4.05;2.13;;;24.30;99.80;;;;;;2585900;54;20035;31
2022/06/08 16:38:31;;;;;;;2.92;2.33;;;24.30;99.90;;;;;;2604059;47;20878;31
2022/06/08 16:41:09;;;;;;;;;;;24.20;99.90;;;;;;2586063;54;20089;31
2022/06/08 16:43:44;;;;;;;2.45;1.85;;;24.20;99.90;;;;;;2595896;47;19938;31
2022/06/08 16:46:22;;;;;;;4.60;2.28;;;24.20;99.90;;;;;;2585935;54;20054;31
2022/06/08 16:48:55;;;;;;;2.85;2.20;;;24.20;99.90;;;;;;2585684;54;20026;31
2022/06/08 16:51:32;;;;;;;5.00;2.30;;;24.20;99.90;;;;;;2585938;54;20081;31
2022/06/08 16:54:10;;;;;;;5.40;2.40;;;24.20;99.90;;;;;;2585924;54;20573;31
2022/06/08 16:59:41;;;;;;;3.53;2.28;;;24.10;99.90;;;;;;2587048;54;20748;31
2022/06/08 17:02:16;;;;;;;2.42;2.22;;;24.00;99.90;;;;;;2586943;54;20045;31
2022/06/08 17:04:54;;;;;;;6.07;2.30;;;24.00;99.90;;;;;;2585782;54;20974;31
2022/06/08 17:07:30;;;;;;;4.63;3.00;;;24.00;99.90;;;;;;2586742;54;20027;31
2022/06/08 17:10:04;;;;;;;2.90;2.60;;;23.80;99.90;;;;;;2586705;54;20758;31
2022/06/08 17:12:47;;;;;;;2.60;2.40;;;23.80;99.90;;;;;;2586641;54;20085;31
2022/06/08 17:15:34;;;;;;;4.05;2.50;;;23.80;99.90;;;;;;2586760;54;20889;31
2022/06/08 17:18:07;;;;;;;4.10;3.00;;;23.70;99.90;;;;;;2604322;46;20889;31
2022/06/08 17:20:43;;;;;;;2.95;2.65;;;23.70;99.90;;;;;;2585767;54;20120;31
2022/06/08 17:23:18;;;;;;;4.55;2.40;;;23.60;99.90;;;;;;2586788;54;20843;31
2022/06/08 17:25:55;;;;;;;9.32;2.53;;;23.60;99.90;;;;;;2590037;46;20057;31
2022/06/08 17:28:34;;;;;;;3.30;2.70;;;23.50;99.90;;;;;;2586727;54;20026;31
2022/06/08 17:31:12;;;;;;;7.65;5.35;;;23.50;99.90;;;;;;2604637;46;20119;31
2022/06/08 17:33:46;;;;;;;9.88;5.88;;;23.40;99.90;;;;;;2586659;54;20034;31
2022/06/08 17:36:22;;;;;;;3.22;2.83;;;23.40;99.90;;;;;;2585750;54;20957;31
2022/06/08 17:38:57;;;;;;;3.60;2.70;;;23.30;99.90;;;;;;2585702;54;20821;31
2022/06/08 17:41:33;;;;;;;2.97;2.60;;;23.20;99.90;;;;;;2601838;46;20041;31
2022/06/08 17:44:16;;;;;;;4.07;2.90;;;23.10;99.90;;;;;;2605203;46;20747;31
2022/06/08 17:46:52;;;;;;;4.85;3.35;;;23.10;99.90;;;;;;2586766;54;20089;31
2022/06/08 17:49:31;;;;;;;4.30;3.90;;;23.10;99.90;;;;;;2684685;39;21324;31
2022/06/08 17:52:08;;;;;;;3.08;2.63;;;23.00;99.90;;;;;;2604939;46;20030;31
2022/06/08 17:54:45;;;;;;;3.25;2.92;;;23.00;99.90;;;;;;2586781;54;20886;31
2022/06/08 17:57:20;;;;;;;3.90;3.40;;;22.90;99.90;;;;;;2586797;54;20027;31
2022/06/08 18:00:02;;;;;;;6.57;3.80;;;22.90;99.90;;;;;;2586845;54;20026;31
2022/06/08 18:02:42;;;;;;;5.50;3.10;;;22.90;99.90;;;;;;2605427;46;20036;31
2022/06/08 18:05:18;;;;;;;4.45;2.90;;;22.70;99.90;;;;;;2586680;54;20050;31
2022/06/08 18:07:53;;;;;;;3.20;2.90;;;22.80;99.90;;;;;;2605232;46;20882;31
2022/06/08 18:10:35;;;;;;;4.40;2.80;;;22.70;99.90;;;;;;2586494;54;20065;31
2022/06/08 18:13:11;;;;;;;4.93;3.28;;;22.70;99.90;;;;;;2586805;54;20854;31
2022/06/08 18:15:48;;;;;;;4.40;2.90;;;22.60;99.90;;;;;;2586473;54;20084;31
2022/06/08 18:18:24;;;;;;;3.58;3.13;;;22.60;99.90;;;;;;2605118;46;20250;31
2022/06/08 18:21:02;;;;;;;5.50;3.63;;;22.50;99.90;;;;;;2585526;54;20034;31
2022/06/08 18:23:41;;;;;;;4.85;3.15;;;22.50;99.90;;;;;;2586559;54;20081;31
2022/06/08 18:26:16;;;;;;;3.80;3.50;;;22.50;99.90;;;;;;2604860;46;20865;31
2022/06/08 18:28:51;;;;;;;6.90;4.00;;;22.40;99.90;;;;;;2586670;54;20838;31
2022/06/08 18:31:29;;;;;;;4.10;3.70;;;22.30;99.90;;;;;;2586462;54;20817;31
2022/06/08 18:34:02;;;;;;;5.88;4.00;;;22.30;99.90;;;;;;2605071;46;20030;31
2022/06/08 18:36:57;;;;;;;5.95;3.75;;;22.20;99.90;;;;;;2605098;46;20037;31
2022/06/08 18:39:36;;;;;;;5.45;3.63;;;22.20;99.90;;;;;;2586176;54;20915;31
2022/06/08 18:42:11;;;;;;;5.65;3.80;;;22.20;99.90;;;;;;2586366;54;20957;31
2022/06/08 18:44:51;;;;;;;4.40;4.00;;;22.10;99.90;;;;;;2586281;54;20093;31
2022/06/08 18:47:26;;;;;;;4.43;3.65;;;22.10;99.90;;;;;;2604792;46;20022;31
2022/06/08 18:50:05;;;;;;;4.30;3.90;;;22.00;99.90;;;;;;2586204;54;20089;31
2022/06/08 18:52:45;;;;;;;6.33;3.87;;;21.90;99.90;;;;;;2586045;54;20049;31
2022/06/08 18:55:21;;;;;;;5.88;4.28;;;21.90;99.90;;;;;;2586385;54;20986;31
2022/06/08 18:57:58;;;;;;;6.70;4.70;;;21.80;99.90;;;;;;2586707;54;20753;31
2022/06/08 19:00:33;;;;;;;6.75;4.60;;;21.80;99.90;;;;;;2586246;54;20049;31
2022/06/08 19:03:11;;;;;;;9.35;4.80;;;21.70;99.90;;;;;;2585478;54;20892;31
2022/06/08 19:05:56;;;;;;;5.15;4.65;;;21.60;99.90;;;;;;2586610;54;20049;31
2022/06/08 19:08:32;;;;;;;10.57;5.15;;;21.60;99.90;;;;;;2586262;54;20929;31
2022/06/08 19:11:09;;;;;;;6.73;5.33;;;21.40;99.90;;;;;;2604973;46;20800;31
2022/06/08 19:13:45;;;;;;;5.80;5.20;;;21.40;99.90;;;;;;2586453;54;20030;31
2022/06/08 19:16:23;;;;;;;6.03;5.43;;;21.30;99.90;;;;;;2604563;46;20033;31
2022/06/08 19:21:55;;;;;;;6.57;5.30;;;21.20;99.90;;;;;;2585928;54;20854;31
2022/06/08 19:24:29;;;;;;;5.77;5.17;;;21.10;99.90;;;;;;2586542;54;20763;31
2022/06/08 19:27:03;;;;;;;6.00;5.50;;;21.00;99.90;;;;;;2586488;54;21254;31
2022/06/08 19:29:35;;;;;;;9.43;5.70;;;21.10;99.90;;;;;;2586382;54;20759;31
2022/06/08 19:32:10;;;;;;;6.97;6.25;;;20.90;99.90;;;;;;2586387;54;20924;31
2022/06/08 19:34:48;;;;;;;6.10;5.30;;;20.90;99.90;;;;;;2586053;54;20026;31
2022/06/08 19:37:25;;;;;;;6.40;5.70;;;20.80;99.90;;;;;;2586209;54;20806;31
2022/06/08 19:39:57;;;;;;;7.80;5.53;;;20.80;99.90;;;;;;2586043;54;20061;31
2022/06/08 19:42:31;;;;;;;6.53;5.67;;;20.80;99.90;;;;;;2586154;54;20089;31
2022/06/08 19:45:05;;;;;;;7.15;5.90;;;20.70;99.90;;;;;;2586274;54;20786;31
2022/06/08 19:47:39;;;;;;;6.10;5.60;;;20.70;99.90;;;;;;2586196;54;20866;31
2022/06/08 19:50:13;;;;;;;7.80;5.95;;;20.70;99.90;;;;;;2586274;54;20920;31
2022/06/08 19:52:51;;;;;;;7.03;5.37;;;20.60;99.90;;;;;;2586343;54;20085;31
2022/06/08 19:55:23;;;;;;;7.13;6.00;;;20.60;99.90;;;;;;2604825;46;20934;31
2022/06/08 19:57:58;;;;;;;8.10;5.70;;;20.50;99.90;;;;;;2586206;54;19938;31
2022/06/08 20:00:31;;;;;;;6.90;5.30;;;20.50;99.90;;;;;;2585189;54;20911;31
2022/06/08 20:03:06;;;;;;;7.37;5.90;;;20.40;99.90;;;;;;2586046;54;20817;31
2022/06/08 20:05:43;;;;;;;5.38;4.85;;;20.40;99.90;;;;;;2585967;54;20023;31
2022/06/08 20:08:20;;;;;;;7.03;6.17;;;20.40;99.90;;;;;;2586321;54;20767;31
2022/06/08 20:10:57;;;;;;;9.15;6.50;;;20.30;99.90;;;;;;2584986;54;20037;31
2022/06/08 20:13:30;;;;;;;6.65;5.53;;;20.30;99.90;;;;;;2586035;54;20903;31
2022/06/08 20:16:04;;;;;;;9.90;6.20;;;20.20;99.90;;;;;;2585353;54;20039;31
2022/06/08 20:18:37;;;;;;;6.47;5.60;;;20.20;99.90;;;;;;2604331;47;20731;31
2022/06/08 20:21:15;;;;;;;7.60;5.70;;;20.20;99.90;;;;;;2586106;54;20031;31
2022/06/08 20:23:54;;;;;;;5.20;4.75;;;20.10;99.90;;;;;;2604507;47;20917;31
2022/06/08 20:26:32;;;;;;;6.10;5.20;;;20.10;99.90;;;;;;2585094;54;20922;31
2022/06/08 20:29:07;;;;;;;7.53;6.70;;;20.00;99.90;;;;;;2586187;54;20031;31